Latest Weather Observations for Learmonth

IDW60801

Issued at 11:03 pm WST Monday 24 April 2017 (issued every 30 minutes, with the page automatically refreshed every 10 minutes)

About weather observations | Map of weather stations | Latest weather observations for WA | Other Formats
Station Details ID: 005007 Name: LEARMONTH AIRPORT Lat: -22.24 Lon: 114.10 Height: 5.0 m
Data from the previous 72 hours. | See also: Recent months at Learmonth
Date/Time
WST
Temp
°C
App
Temp
°C
Dew
Point
°C
Rel
Hum
%
Delta-T
°C
Wind Press
QNH
hPa
Press
MSL
hPa
Rain since
9am
mm
Dir  Spd
km/h
Gust
km/h
Spd
kts
Gust
kts
24/11:00pm 25.0 24.2 18.0 65 4.4 SW 19 24 10 13 1013.5 - 0.0
24/10:30pm 24.9 25.5 19.5 72 3.5 WSW 15 20 8 11 1013.8 - 0.0
24/10:00pm 24.9 25.6 19.7 73 3.4 WSW 15 20 8 11 1013.8 - 0.0
24/09:30pm 25.0 25.9 20.0 74 3.2 WSW 15 19 8 10 1013.8 - 0.0
24/09:00pm 25.2 25.7 20.0 73 3.4 WSW 17 20 9 11 1013.7 1013.6 0.0
24/08:30pm 25.3 26.2 20.1 73 3.4 W 15 19 8 10 1013.6 - 0.0
24/08:00pm 25.6 26.2 20.2 72 3.5 WSW 17 19 9 10 1013.3 - 0.0
24/07:30pm 25.9 26.5 20.2 71 3.7 WSW 17 20 9 11 1013.2 - 0.0
24/07:00pm 26.2 26.7 20.1 69 4.0 W 17 24 9 13 1012.8 - 0.0
24/06:30pm 26.9 26.2 19.5 64 4.8 W 22 28 12 15 1012.6 - 0.0
24/06:00pm 27.7 26.4 19.0 59 5.6 W 24 30 13 16 1012.4 1012.3 0.0
24/05:30pm 28.9 27.3 18.4 53 6.7 W 24 32 13 17 1012.0 - 0.0
24/05:00pm 29.8 27.1 17.6 48 7.7 W 28 37 15 20 1011.7 - 0.0
24/04:30pm 30.8 28.3 17.1 43 8.7 W 26 35 14 19 1011.5 - 0.0
24/04:00pm 31.1 28.4 16.7 42 9.1 W 26 35 14 19 1011.4 - 0.0
24/03:30pm 31.5 30.2 18.1 44 8.6 W 22 33 12 18 1011.3 - 0.0
24/03:00pm 32.3 31.5 18.5 44 9.0 W 20 28 11 15 1011.5 1011.4 0.0
24/02:00pm 28.7 28.7 21.0 63 5.1 N 22 32 12 17 1011.9 - 0.0
24/01:30pm 29.1 28.8 21.1 62 5.3 N 24 32 13 17 1012.1 - 0.0
24/01:00pm 30.4 30.6 20.6 55 6.5 NNE 20 28 11 15 1012.2 - 0.0
24/12:30pm 29.2 29.9 21.2 62 5.3 NE 19 24 10 13 1012.6 - 0.0
24/12:00pm 28.4 29.1 21.2 65 4.8 NE 19 24 10 13 1013.0 1012.9 0.0
24/11:30am 28.8 29.9 21.3 64 5.0 ENE 17 20 9 11 1013.5 - 0.0
24/11:00am 30.8 31.4 16.8 43 8.8 WSW 9 17 5 9 1013.9 - 0.0
24/10:30am 29.7 30.1 18.2 50 7.4 WSW 13 22 7 12 1013.9 - 0.0
24/10:00am 29.0 29.4 19.0 54 6.5 WSW 15 19 8 10 1014.2 - 0.0
24/09:30am 28.4 28.5 19.1 57 6.0 SW 17 22 9 12 1014.1 - 0.0
24/09:00am 28.1 28.5 19.9 61 5.4 SW 17 22 9 12 1014.1 1014.0 0.0
24/08:30am 27.2 27.6 19.8 64 4.8 SW 17 20 9 11 1014.0 - 0.0
24/08:00am 25.7 26.8 19.6 69 3.9 WSW 13 15 7 8 1014.0 - 0.0
24/07:30am 23.7 26.6 19.8 79 2.5 WSW 4 7 2 4 1013.6 - 0.0
24/07:00am 22.1 24.5 18.9 82 2.0 WSW 4 6 2 3 1013.4 - 0.0
24/06:30am 22.4 24.5 19.0 81 2.2 WSW 6 7 3 4 1013.1 - 0.0
24/06:00am 22.4 25.1 19.4 83 1.9 WNW 4 7 2 4 1013.1 1013.0 0.0
24/05:30am 21.6 24.8 18.8 84 1.8 CALM 0 6 0 3 1013.1 - 0.0
24/05:00am 22.1 23.6 18.9 82 2.0 SW 9 11 5 6 1012.9 - 0.0
24/04:30am 23.0 23.6 19.4 80 2.3 WSW 15 17 8 9 1012.7 - 0.0
24/04:00am 22.6 23.0 19.0 80 2.3 W 15 17 8 9 1012.6 - 0.0
24/03:30am 23.2 24.3 18.9 77 2.7 W 11 11 6 6 1012.8 - 0.0
24/03:00am 23.6 24.9 19.3 77 2.7 W 11 13 6 7 1013.0 1012.9 0.0
24/02:30am 23.6 24.4 19.1 76 2.9 W 13 13 7 7 1013.2 - 0.0
24/02:00am 23.9 25.6 19.4 76 2.9 W 9 11 5 6 1013.4 - 0.0
24/01:30am 23.5 24.8 19.4 78 2.6 WSW 11 13 6 7 1013.6 - 0.0
24/01:00am 23.5 25.0 19.0 76 2.9 WSW 9 11 5 6 1013.9 - 0.0
24/12:30am 24.1 25.4 19.4 75 3.0 WSW 11 11 6 6 1014.3 - 0.0
24/12:00am 24.5 26.3 19.6 74 3.2 WSW 9 13 5 7 1014.4 1014.3 0.0
 
Date/Time
WST
Temp
°C
App
Temp
°C
Dew
Point
°C
Rel
Hum
%
Delta-T
°C
Wind Press
QNH
hPa
Press
MSL
hPa
Rain since
9am
mm
Dir  Spd
km/h
Gust
km/h
Spd
kts
Gust
kts
23/11:30pm 24.5 25.7 20.0 76 2.9 SW 13 15 7 8 1014.4 - 0.0
23/11:00pm 25.1 26.7 19.9 73 3.4 WSW 11 15 6 8 1014.6 - 0.0
23/10:30pm 25.7 27.1 20.3 72 3.5 WSW 13 15 7 8 1014.7 - 0.0
23/10:00pm 26.0 26.5 20.1 70 3.8 W 17 20 9 11 1014.9 - 0.0
23/09:30pm 26.3 26.0 20.4 70 3.9 W 22 28 12 15 1014.8 - 0.0
23/09:00pm 26.4 26.5 20.3 69 4.0 W 20 26 11 14 1014.6 1014.5 0.0
23/08:30pm 26.6 26.6 20.2 68 4.2 W 20 28 11 15 1014.5 - 0.0
23/08:00pm 26.6 26.6 20.2 68 4.2 W 20 28 11 15 1014.2 - 0.0
23/07:30pm 26.8 26.9 20.4 68 4.2 W 20 26 11 14 1013.8 - 0.0
23/07:00pm 27.1 27.8 20.4 66 4.4 WNW 17 22 9 12 1013.5 - 0.0
23/06:30pm 27.3 27.7 19.9 64 4.8 WNW 17 22 9 12 1013.0 - 0.0
23/06:00pm 28.2 28.3 19.1 57 5.9 W 17 22 9 12 1012.7 1012.6 0.0
23/05:30pm 29.3 28.9 19.0 53 6.7 W 19 26 10 14 1012.4 - 0.0
23/05:00pm 30.3 29.7 18.4 49 7.7 W 19 28 10 15 1012.0 - 0.0
23/04:30pm 30.7 29.7 18.8 49 7.7 W 22 30 12 16 1011.8 - 0.0
23/04:00pm 30.8 30.6 18.5 47 7.9 W 17 28 9 15 1011.8 - 0.0
23/03:30pm 31.6 31.6 18.9 47 8.3 W 17 28 9 15 1011.8 - 0.0
23/03:00pm 31.3 30.9 19.0 48 8.0 WSW 19 22 10 12 1011.7 1011.6 0.0
23/02:30pm 30.5 30.9 21.0 57 6.3 N 20 24 11 13 1011.7 - 0.0
23/02:00pm 30.0 30.6 21.4 60 5.8 NNE 20 24 11 13 1011.7 - 0.0
23/01:30pm 30.6 30.3 21.1 57 6.4 NNE 24 28 13 15 1011.7 - 0.0
23/01:00pm 30.2 30.2 21.0 58 6.1 NE 22 28 12 15 1012.2 - 0.0
23/12:30pm 30.0 30.3 20.5 56 6.3 NE 19 24 10 13 1012.5 - 0.0
23/12:00pm 30.3 31.3 21.1 58 6.1 NE 17 20 9 11 1013.1 1013.0 0.0
23/11:30am 29.5 30.7 21.4 61 5.4 ENE 17 20 9 11 1013.5 - 0.0
23/11:00am 29.4 30.8 21.1 61 5.5 ENE 15 20 8 11 1013.9 - 0.0
23/10:30am 30.0 31.5 20.5 56 6.3 NE 13 17 7 9 1014.1 - 0.0
23/10:00am 30.5 31.6 17.9 47 8.1 WNW 9 17 5 9 1014.1 - 0.0
23/09:30am 29.3 30.2 18.4 51 7.0 W 11 17 6 9 1014.2 - 0.0
23/09:00am 28.7 30.3 19.9 59 5.8 WSW 11 19 6 10 1014.3 1014.2 0.0
23/08:30am 27.3 29.2 20.6 67 4.4 WSW 11 15 6 8 1014.1 - 0.0
23/08:00am 25.5 28.6 21.4 78 2.7 SW 7 11 4 6 1014.0 - 0.0
23/07:30am 22.4 25.0 20.5 89 1.2 S 7 11 4 6 1013.8 - 0.0
23/07:00am 21.5 25.1 19.8 90 1.1 CALM 0 0 0 0 1013.4 - 0.0
23/06:30am 22.2 24.9 20.3 89 1.2 WSW 6 7 3 4 1013.3 - 0.0
23/06:00am 22.6 25.4 20.9 90 1.1 W 7 9 4 5 1013.0 1012.9 0.0
23/05:30am 22.6 25.2 20.5 88 1.4 WNW 7 9 4 5 1013.0 - 0.0
23/05:00am 22.8 25.5 20.7 88 1.4 W 7 9 4 5 1013.0 - 0.0
23/04:30am 22.8 25.2 20.9 89 1.2 W 9 11 5 6 1013.0 - 0.0
23/04:00am 22.8 24.9 20.9 89 1.2 SW 11 15 6 8 1013.0 - 0.0
23/03:30am 22.9 24.9 20.8 88 1.4 SW 11 15 6 8 1013.1 - 0.0
23/03:00am 22.9 24.9 20.8 88 1.4 WSW 11 13 6 7 1013.1 1013.0 0.0
23/02:30am 23.0 25.0 20.7 87 1.5 WSW 11 13 6 7 1013.2 - 0.0
23/02:00am 23.2 24.9 20.9 87 1.5 WSW 13 15 7 8 1013.4 - 0.0
23/01:30am 23.1 24.6 20.6 86 1.6 SW 13 15 7 8 1013.6 - 0.0
23/01:00am 23.3 25.2 20.6 85 1.8 SW 11 13 6 7 1013.9 - 0.0
23/12:30am 23.7 25.4 21.0 85 1.8 SW 13 15 7 8 1013.9 - 0.0
23/12:00am 24.0 26.1 20.9 83 2.0 SW 11 15 6 8 1014.1 1014.0 0.0
 
Date/Time
WST
Temp
°C
App
Temp
°C
Dew
Point
°C
Rel
Hum
%
Delta-T
°C
Wind Press
QNH
hPa
Press
MSL
hPa
Rain since
9am
mm
Dir  Spd
km/h
Gust
km/h
Spd
kts
Gust
kts
22/11:30pm 24.2 25.9 20.9 82 2.2 WSW 13 17 7 9 1014.2 - 0.0
22/11:00pm 24.0 25.7 20.9 83 2.0 WSW 13 15 7 8 1014.3 - 0.0
22/10:30pm 24.0 26.2 20.5 81 2.3 WSW 9 13 5 7 1014.4 - 0.0
22/10:00pm 24.2 25.7 20.5 80 2.4 SW 13 15 7 8 1014.5 - 0.0
22/09:30pm 24.4 25.9 20.5 79 2.5 SW 13 15 7 8 1014.7 - 0.0
22/09:00pm 25.0 27.0 20.7 77 2.8 SW 11 13 6 7 1014.7 1014.6 0.0
22/08:30pm 25.6 27.2 20.8 75 3.2 SW 13 17 7 9 1014.5 - 0.0
22/08:00pm 26.0 26.8 20.6 72 3.5 WSW 17 20 9 11 1014.1 - 0.0
22/07:30pm 26.3 26.6 20.8 71 3.6 WSW 20 26 11 14 1013.8 - 0.0
22/07:00pm 26.6 26.7 20.4 69 4.1 WSW 20 30 11 16 1013.5 - 0.0
22/06:30pm 27.1 26.8 20.4 66 4.4 W 22 30 12 16 1013.1 - 0.0
22/06:00pm 27.8 27.2 19.8 61 5.2 W 22 28 12 15 1012.9 1012.8 0.0
22/05:30pm 29.0 28.1 19.9 58 6.0 WSW 24 28 13 15 1012.6 - 0.0
22/05:00pm 29.9 29.2 20.2 56 6.4 W 24 33 13 18 1012.3 - 0.0
22/04:30pm 30.3 29.4 19.9 53 6.8 W 24 33 13 18 1012.1 - 0.0
22/04:00pm 31.0 30.2 20.0 52 7.3 W 24 33 13 18 1012.1 - 0.0
22/03:30pm 31.6 30.9 19.6 49 7.9 W 22 32 12 17 1012.0 - 0.0
22/03:00pm 31.1 32.3 20.7 54 6.9 N 15 22 8 12 1012.0 1011.9 0.0
22/02:30pm 30.7 31.4 21.5 58 6.2 N 20 24 11 13 1012.1 - 0.0
22/02:00pm 31.0 32.0 21.8 58 6.2 NNE 19 24 10 13 1012.2 - 0.0
22/01:30pm 31.2 33.0 21.1 55 6.8 NNE 13 19 7 10 1012.3 - 0.0
22/01:00pm 30.7 32.4 20.9 56 6.5 NE 13 22 7 12 1012.6 - 0.0
22/12:30pm 30.6 31.6 21.1 57 6.4 ENE 17 22 9 12 1013.1 - 0.0
22/12:00pm 28.8 29.9 20.5 61 5.5 ENE 15 19 8 10 1013.6 1013.5 0.0
22/11:30am 28.8 29.9 20.5 61 5.5 ENE 15 19 8 10 1014.1 - 0.0
22/11:00am 28.3 29.2 20.8 63 5.0 ENE 17 20 9 11 1014.6 - 0.0
22/10:30am 27.7 28.4 20.5 65 4.7 ENE 17 20 9 11 1014.7 - 0.0
22/10:00am 28.0 30.2 20.3 63 5.1 NE 9 19 5 10 1015.0 - 0.0
22/09:30am 27.7 29.9 20.3 64 4.9 S 9 17 5 9 1014.9 - 0.0
22/09:00am 26.3 28.5 20.4 70 3.9 SSW 9 15 5 8 1014.9 1014.8 0.0
22/08:30am 25.7 27.8 20.9 75 3.2 SSW 11 19 6 10 1015.0 - 0.0
22/08:00am 24.3 27.3 20.8 81 2.3 SE 6 7 3 4 1014.7 - 0.0
22/07:30am 22.6 25.4 20.9 90 1.1 E 7 9 4 5 1014.6 - 0.0
22/07:00am 20.2 21.7 19.0 93 0.8 SSE 9 11 5 6 1014.2 - 0.0
22/06:30am 19.8 20.8 18.6 93 0.7 SSE 11 11 6 6 1013.7 - 0.0
22/06:00am 21.4 23.0 19.9 91 1.0 SW 11 13 6 7 1013.3 1013.2 0.0
22/05:30am 21.9 23.3 20.4 91 1.0 SW 13 15 7 8 1013.2 - 0.0
22/05:00am 22.1 23.8 20.2 89 1.2 WSW 11 15 6 8 1013.0 - 0.0
22/04:30am 22.4 23.8 20.3 88 1.4 WSW 13 17 7 9 1012.8 - 0.0
22/04:00am 22.6 23.8 20.7 89 1.2 WSW 15 20 8 11 1012.8 - 0.0
22/03:30am 22.7 24.0 20.8 89 1.2 WSW 15 19 8 10 1012.9 - 0.0
22/03:00am 22.8 24.6 21.1 90 1.1 WSW 13 17 7 9 1013.0 1012.9 0.0
22/02:30am 22.5 24.1 20.8 90 1.1 WSW 13 17 7 9 1013.0 - 0.0
22/02:00am 22.2 23.8 20.7 91 1.0 WSW 13 15 7 8 1013.1 - 0.0
22/01:30am 22.0 24.2 20.3 90 1.1 WSW 9 13 5 7 1013.5 - 0.0
22/01:00am 22.6 24.8 20.5 88 1.4 WSW 9 9 5 5 1013.6 - 0.0
22/12:30am 23.0 25.0 20.7 87 1.5 WSW 11 15 6 8 1013.8 - 0.0
22/12:00am 23.1 24.7 20.8 87 1.5 WSW 13 15 7 8 1014.0 1013.9 0.0
 
Date/Time
WST
Temp
°C
App
Temp
°C
Dew
Point
°C
Rel
Hum
%
Delta-T
°C
Wind Press
QNH
hPa
Press
MSL
hPa
Rain since
9am
mm
Dir  Spd
km/h
Gust
km/h
Spd
kts
Gust
kts
21/11:30pm 23.3 24.9 20.8 86 1.6 WSW 13 17 7 9 1014.2 - 0.0

Other Formats:

Comma delimited format used in spreadsheet applications
http://www.bom.gov.au/fwo/IDW60801/IDW60801.94302.axf

JavaScript Object Notation format (JSON) in row-major order
http://www.bom.gov.au/fwo/IDW60801/IDW60801.94302.json